deformed-offering

Nearby METAR Reports

 

KNUQ - Moffett Nas/Mtn, California, USA
Distance from station: N 9mi, 14km
Updated: Sun, 22-Oct-2017 12:56am PDT
Clear
Clear
 Wind from calm
Wind: Calm
Temperature: 54°F , 12°C
Dew Point: 48°F , 9°C
Humidity: 82%
Barometer: 30.32 inHg , 1026.8 hPa
Clouds: Clear
Visibility: 10 miles , 16 km
2017/10/22 07:56 KNUQ 220756Z 00000KT 10SM CLR 12/09 A3032 RMK AO2 SLP269 T01220094 402110078
KSJC - San Jose, California, USA
Distance from station: NE 9mi, 14km
Updated: Sun, 22-Oct-2017 12:53am PDT
Clear
Clear
 Wind from calm
Wind: Calm
Temperature: 55°F , 13°C
Dew Point: 50°F , 10°C
Humidity: 82%
Barometer: 30.31 inHg , 1026.4 hPa
Clouds: Clear
Visibility: 10 miles , 16 km
2017/10/22 07:53 KSJC 220753Z AUTO 00000KT 10SM CLR 13/10 A3031 RMK AO2 SLP264 T01330100 402110083
 
KRHV - San Jose/Reid, California, USA
Distance from station: ENE 12mi, 19km
Updated: Sat, 21-Oct-2017 9:47pm PDT
NOT Current
Clear
Clear
 Wind from calm
Wind: Calm
Temperature: 57°F , 14°C
Dew Point: 52°F , 11°C
Humidity: 82%
Barometer: 30.35 inHg , 1027.8 hPa
Clouds: Clear
Visibility: 8 miles , 13 km
2017/10/22 04:47 KRHV 220447Z 00000KT 8SM SKC 14/11 A3035 RMK LAST
KPAO - Palo Alto, California, USA
Distance from station: NNW 14mi, 23km
Updated: Sat, 21-Oct-2017 8:47pm PDT
NOT Current
Clear
Clear
 Wind from NW
Wind: NW 9 mph , 15 km/h
Temperature: 57°F , 14°C
Dew Point: 52°F , 11°C
Humidity: 82%
Barometer: 30.29 inHg , 1025.7 hPa
Clouds: Clear
Visibility: 10 miles , 16 km
2017/10/22 03:47 KPAO 220347Z 32008KT 10SM SKC 14/11 A3029 RMK LAST
 
KSQL - San Carlos Airpo, California, USA
Distance from station: NW 21mi, 34km
Updated: Sun, 22-Oct-2017 1:15am PDT
Clear
Clear
 Wind from calm
Wind: Calm
Temperature: 55°F , 13°C
Dew Point: 50°F , 10°C
Humidity: 82%
Barometer: 30.33 inHg , 1027.1 hPa
Clouds: Clear
Visibility: 10 miles , 16 km
2017/10/22 08:15 KSQL 220815Z AUTO 00000KT 10SM CLR 13/10 A3033 RMK AO2
KE16 - San Martin, California, USA
Distance from station: ESE 27mi, 43km
Updated: Sun, 22-Oct-2017 1:15am PDT
Light rain, Few clouds
Light rain, Few clouds
 Wind from NW
Wind: NW 6 mph , 9 km/h
Temperature: 54°F , 12°C
Dew Point: 48°F , 9°C
Humidity: 82%
Barometer: 30.33 inHg , 1027.1 hPa
Summary: Light Rain
Clouds: Few Clouds
Visibility: 10 miles , 16 km
Cloud details: Few Clouds 1800 ft
2017/10/22 08:15 KE16 220815Z AUTO 32005KT 10SM -RA FEW018 12/09 A3033 RMK AO2
 
KWVI - Watsonville, California, USA
Distance from station: SSE 27mi, 44km
Updated: Sun, 22-Oct-2017 12:53am PDT
Clear
Clear
 Wind from NW
Wind: NW 7 mph , 11 km/h
Temperature: 50°F , 10°C
Wind Chill: 47°F , 8°C
Dew Point: 45°F , 7°C
Humidity: 82%
Barometer: 30.30 inHg , 1026.1 hPa
Clouds: Clear
Visibility: 10 miles , 16 km
2017/10/22 07:53 KWVI 220753Z AUTO 32006KT 10SM CLR 10/07 A3030 RMK AO2 SLP259 T01000072 402110067
KHWD - Hayward, California, USA
Distance from station: N 28mi, 44km
Updated: Sun, 22-Oct-2017 12:54am PDT
Clear
Clear
 Wind from ENE
Wind: ENE 3 mph , 6 km/h
Temperature: 55°F , 13°C
Dew Point: 48°F , 9°C
Humidity: 77%
Barometer: 30.32 inHg , 1026.8 hPa
Clouds: Clear
Visibility: 10 miles , 16 km
2017/10/22 07:54 KHWD 220754Z AUTO 06003KT 10SM CLR 13/09 A3032 RMK AO2 SLP276 T01280089 402000083 PNO
 
KSFO - San Francisco, California, USA
Distance from station: NW 30mi, 49km
Updated: Sun, 22-Oct-2017 12:56am PDT
Clear
Clear
 Wind from WNW
Wind: WNW 6 mph , 9 km/h
Temperature: 55°F , 13°C
Dew Point: 52°F , 11°C
Humidity: 88%
Barometer: 30.31 inHg , 1026.4 hPa
Clouds: Clear
Visibility: 10 miles , 16 km
2017/10/22 07:56 KSFO 220756Z 29005KT 10SM CLR 13/11 A3031 RMK AO2 SLP265 T01330106 402000106
KHAF - Half Moon Bay, California, USA
Distance from station: WNW 31mi, 50km
Updated: Sun, 22-Oct-2017 1:15am PDT
Mist, Overcast
Mist, Overcast
 Wind from calm
Wind: Calm
Temperature: 50°F , 10°C
Dew Point: 48°F , 9°C
Humidity: 94%
Barometer: 30.30 inHg , 1026.1 hPa
Summary: Mist
Clouds: Overcast
Visibility: 5 miles , 8 km
Cloud details: Overcast 300 ft
2017/10/22 08:15 KHAF 220815Z AUTO 00000KT 5SM BR OVC003 10/09 A3030 RMK AO2
 
KOAK - Oakland, California, USA
Distance from station: NNW 31mi, 50km
Updated: Sun, 22-Oct-2017 12:53am PDT
Clear
Clear
 Wind from ENE
Wind: ENE 5 mph , 7 km/h
Temperature: 52°F , 11°C
Dew Point: 50°F , 10°C
Humidity: 94%
Barometer: 30.33 inHg , 1027.1 hPa
Clouds: Clear
Visibility: 10 miles , 16 km
2017/10/22 07:53 KOAK 220753Z 06004KT 10SM CLR 11/10 A3033 RMK AO2 SLP268 T01060100 401940067 $
KLVK - Livermore, California, USA
Distance from station: NNE 31mi, 51km
Updated: Sun, 22-Oct-2017 12:53am PDT
Clear
Clear
 Wind from calm
Wind: Calm
Temperature: 52°F , 11°C
Dew Point: 46°F , 8°C
Humidity: 82%
Barometer: 30.31 inHg , 1026.4 hPa
Clouds: Clear
Visibility: 10 miles , 16 km
2017/10/22 07:53 KLVK 220753Z AUTO 00000KT 10SM CLR 11/08 A3031 RMK AO2 SLP263 T01060078 402170050
 
KCVH - Hollister Muni, California, USA
Distance from station: SE 42mi, 68km
Updated: Sun, 22-Oct-2017 1:10am PDT
Clear
Clear
 Wind from calm
Wind: Calm
Temperature: 46°F , 8°C
Dew Point: 41°F , 5°C
Humidity: 82%
Barometer: 30.32 inHg , 1026.8 hPa
Clouds: Clear
Visibility: 10 miles , 16 km
2017/10/22 08:10 KCVH 220810Z AUTO 00000KT 10SM CLR 08/05 A3032 RMK A01
KSNS - Salinas, California, USA
Distance from station: SSE 48mi, 77km
Updated: Sun, 22-Oct-2017 12:53am PDT
Clear
Clear
 Wind from calm
Wind: Calm
Temperature: 52°F , 11°C
Dew Point: 46°F , 8°C
Humidity: 82%
Barometer: 30.29 inHg , 1025.7 hPa
Clouds: Clear
Visibility: 10 miles , 16 km
2017/10/22 07:53 KSNS 220753Z AUTO 00000KT 10SM CLR 11/08 A3029 RMK AO2 SLP264 T01110078 402060061
 
KMRY - Monterey, California, USA
Distance from station: SSE 49mi, 78km
Updated: Sun, 22-Oct-2017 12:54am PDT
Clear
Clear
 Wind from ENE
Wind: ENE 3 mph , 6 km/h
Temperature: 52°F , 11°C
Dew Point: 43°F , 6°C
Humidity: 72%
Barometer: 30.29 inHg , 1025.7 hPa
Clouds: Clear
Visibility: 10 miles , 16 km
2017/10/22 07:54 KMRY 220754Z AUTO 07003KT 10SM CLR 11/06 A3029 RMK AO2 SLP268 T01110061 401720072
KCCR - Concord, California, USA
Distance from station: N 50mi, 81km
Updated: Sun, 22-Oct-2017 12:53am PDT
Clear
Clear
 Wind from calm
Wind: Calm
Temperature: 57°F , 14°C
Dew Point: 52°F , 11°C
Humidity: 82%
Barometer: 30.32 inHg , 1026.8 hPa
Clouds: Clear
Visibility: 10 miles , 16 km
2017/10/22 07:53 KCCR 220753Z AUTO 00000KT 10SM CLR 14/11 A3032 RMK AO2 SLP252 T01390106 402280083
deformed-offering